createdAt,value
2022-11-27T00:01:46.018Z,101258.22
2022-11-27T00:06:47.610Z,101255.13
2022-11-27T00:11:49.192Z,101254.63
2022-11-27T00:16:51.042Z,101249.91
2022-11-27T00:21:52.627Z,101254.50
2022-11-27T00:26:54.205Z,101264.72
2022-11-27T00:31:57.482Z,101258.16
2022-11-27T00:36:59.052Z,101254.03
2022-11-27T00:42:00.830Z,101255.88
2022-11-27T00:47:02.479Z,101260.34
2022-11-27T00:52:04.260Z,101280.47
2022-11-27T00:57:06.156Z,101279.63
2022-11-27T01:02:07.832Z,101265.63
2022-11-27T01:07:09.539Z,101266.28
2022-11-27T01:12:11.207Z,101269.47
2022-11-27T01:17:12.964Z,101272.91
2022-11-27T01:22:14.569Z,101268.78
2022-11-27T01:27:16.158Z,101265.34
2022-11-27T01:32:17.762Z,101267.97
2022-11-27T01:37:19.772Z,101265.47
2022-11-27T01:42:21.352Z,101259.06
2022-11-27T01:47:44.156Z,101253.78
2022-11-27T01:52:50.616Z,101249.81
2022-11-27T01:57:58.445Z,101247.31
2022-11-27T02:03:00.105Z,101244.69
2022-11-27T02:08:07.270Z,101250.47
2022-11-27T02:13:21.653Z,101253.78
2022-11-27T02:18:48.757Z,101248.13
2022-11-27T02:24:13.144Z,101238.59
2022-11-27T02:29:19.825Z,101246.47
2022-11-27T02:34:43.125Z,101247.88
2022-11-27T02:40:01.558Z,101235.84
2022-11-27T02:45:12.275Z,101242.50
2022-11-27T02:50:19.973Z,101234.22
2022-11-27T02:55:26.205Z,101244.56
2022-11-27T03:00:30.079Z,101247.13
2022-11-27T03:05:36.203Z,101242.41
2022-11-27T03:10:55.453Z,101242.41
2022-11-27T03:16:12.297Z,101239.16
2022-11-27T03:21:29.044Z,101238.97
2022-11-27T03:26:31.647Z,101229.38
2022-11-27T03:31:33.393Z,101227.63
2022-11-27T03:36:35.152Z,101203.75
2022-11-27T03:41:58.660Z,101203.50
2022-11-27T03:47:26.509Z,101200.25
2022-11-27T03:52:49.253Z,101201.59
2022-11-27T03:58:01.124Z,101190.28
2022-11-27T04:03:04.332Z,101196.84
2022-11-27T04:08:06.229Z,101194.88
2022-11-27T04:13:07.841Z,101205.16
2022-11-27T04:18:09.421Z,101200.94
2022-11-27T04:23:11.188Z,101201.44
2022-11-27T04:28:12.760Z,101191.94
2022-11-27T04:33:14.503Z,101195.97
2022-11-27T04:38:16.294Z,101200.91
2022-11-27T04:43:17.948Z,101205.97
2022-11-27T04:48:19.524Z,101192.38
2022-11-27T04:53:21.194Z,101198.56
2022-11-27T04:58:22.808Z,101199.19
2022-11-27T05:03:24.432Z,101201.69
2022-11-27T05:08:26.362Z,101202.72
2022-11-27T05:13:28.014Z,101205.06
2022-11-27T05:18:29.826Z,101206.75
2022-11-27T05:23:32.339Z,101209.88
2022-11-27T05:28:33.919Z,101202.91
2022-11-27T05:33:35.700Z,101211.22
2022-11-27T05:38:37.308Z,101210.53
2022-11-27T05:43:39.137Z,101202.72
2022-11-27T05:48:41.116Z,101207.56
2022-11-27T05:53:42.871Z,101202.22
2022-11-27T05:58:46.779Z,101196.47
2022-11-27T06:03:48.532Z,101190.94
2022-11-27T06:08:50.447Z,101205.97
2022-11-27T06:13:52.041Z,101214.81
2022-11-27T06:18:55.887Z,101216.94
2022-11-27T06:23:57.883Z,101216.81
2022-11-27T06:29:01.004Z,101221.72
2022-11-27T06:34:04.252Z,101228.22
2022-11-27T06:39:08.107Z,101239.13
2022-11-27T06:44:10.648Z,101234.06
2022-11-27T06:49:12.377Z,101234.81
2022-11-27T06:54:13.967Z,101236.56
2022-11-27T06:59:16.442Z,101240.63
2022-11-27T07:04:18.127Z,101249.50
2022-11-27T07:09:19.749Z,101252.28
2022-11-27T07:14:21.457Z,101256.84
2022-11-27T07:19:23.056Z,101251.56
2022-11-27T07:24:24.730Z,101246.00
2022-11-27T07:29:26.603Z,101244.97
2022-11-27T07:34:28.261Z,101251.72
2022-11-27T07:40:00.362Z,101250.59
2022-11-27T07:44:51.693Z,101248.34
2022-11-27T07:49:55.130Z,101243.22
2022-11-27T07:54:56.764Z,101254.94
2022-11-27T07:59:58.347Z,101253.75
2022-11-27T08:05:00.079Z,101257.47
2022-11-27T08:10:01.765Z,101264.59
2022-11-27T08:15:05.700Z,101251.22
2022-11-27T08:20:07.954Z,101245.09
2022-11-27T08:25:09.634Z,101250.78
2022-11-27T08:30:11.432Z,101247.06
2022-11-27T08:35:13.021Z,101250.09
2022-11-27T08:40:14.918Z,101251.50
2022-11-27T08:45:16.583Z,101237.13
2022-11-27T08:50:18.655Z,101244.41
2022-11-27T08:55:20.287Z,101242.81
2022-11-27T09:00:27.594Z,101245.69
2022-11-27T09:05:30.636Z,101239.00
2022-11-27T09:10:32.536Z,101240.31
2022-11-27T09:15:34.310Z,101246.63
2022-11-27T09:20:36.140Z,101243.69
2022-11-27T09:25:39.524Z,101240.38
2022-11-27T09:30:41.107Z,101238.31
2022-11-27T09:35:42.959Z,101225.34
2022-11-27T09:40:49.124Z,101213.09
2022-11-27T09:46:00.840Z,101211.00
2022-11-27T09:51:11.589Z,101202.81
2022-11-27T09:56:17.664Z,101206.72
2022-11-27T10:01:32.138Z,101199.00
2022-11-27T10:06:56.058Z,101182.41
2022-11-27T10:12:14.490Z,101168.44
2022-11-27T10:17:22.654Z,101147.78
2022-11-27T10:22:51.065Z,101149.66
2022-11-27T10:28:12.952Z,101139.41
2022-11-27T10:33:20.317Z,101129.78
2022-11-27T10:38:28.029Z,101123.44
2022-11-27T10:43:29.695Z,101127.06
2022-11-27T10:48:32.699Z,101108.88
2022-11-27T10:53:37.242Z,101107.72
2022-11-27T10:58:46.412Z,101104.63
2022-11-27T11:03:48.193Z,101089.50
2022-11-27T11:09:03.954Z,101089.28
2022-11-27T11:14:22.917Z,101080.25
2022-11-27T11:19:34.571Z,101070.56
2022-11-27T11:24:42.363Z,101068.81
2022-11-27T11:29:51.736Z,101060.44
2022-11-27T11:35:03.608Z,101057.28
2022-11-27T11:40:16.280Z,101054.56
2022-11-27T11:45:20.150Z,101046.69
2022-11-27T11:50:42.722Z,101042.00
2022-11-27T11:56:17.913Z,101039.47
2022-11-27T12:01:58.959Z,101022.94
2022-11-27T12:07:24.796Z,101036.06
2022-11-27T12:12:55.278Z,101025.22
2022-11-27T12:18:32.991Z,101015.66
2022-11-27T12:24:05.577Z,101010.25
2022-11-27T12:29:35.885Z,101003.38
2022-11-27T12:34:57.930Z,101003.38
2022-11-27T12:40:14.508Z,100999.19
2022-11-27T12:45:21.144Z,100993.34
2022-11-27T12:50:32.674Z,100996.09
2022-11-27T12:55:36.327Z,100989.88
2022-11-27T13:00:42.617Z,100973.88
2022-11-27T13:05:50.001Z,100969.47
2022-11-27T13:11:01.660Z,100964.91
2022-11-27T13:16:19.805Z,100969.06
2022-11-27T13:21:29.337Z,100961.84
2022-11-27T13:26:44.738Z,100969.00
2022-11-27T13:31:53.862Z,100961.53
2022-11-27T13:36:58.003Z,100961.66
2022-11-27T13:42:04.690Z,100959.22
2022-11-27T13:47:16.298Z,100955.72
2022-11-27T13:52:21.141Z,100952.97
2022-11-27T13:57:24.614Z,100945.19
2022-11-27T14:02:59.248Z,100933.00
2022-11-27T14:08:00.978Z,100933.56
2022-11-27T14:13:06.109Z,100922.25
2022-11-27T14:18:19.521Z,100921.84
2022-11-27T14:23:33.536Z,100921.44
2022-11-27T14:28:37.013Z,100930.41
2022-11-27T14:34:07.372Z,100922.59
2022-11-27T14:39:06.136Z,100926.44
2022-11-27T14:44:15.439Z,100919.31
2022-11-27T14:49:21.151Z,100916.25
2022-11-27T14:54:33.181Z,100919.75
2022-11-27T14:59:34.800Z,100915.78
2022-11-27T15:04:38.878Z,100921.00
2022-11-27T15:09:45.944Z,100919.63
2022-11-27T15:15:06.489Z,100909.78
2022-11-27T15:20:15.731Z,100902.47
2022-11-27T15:25:41.052Z,100898.28
2022-11-27T15:30:45.864Z,100900.00
2022-11-27T15:35:51.273Z,100907.63
2022-11-27T15:41:00.818Z,100896.97
2022-11-27T15:46:06.267Z,100888.75
2022-11-27T15:51:07.899Z,100887.25
2022-11-27T15:56:09.600Z,100904.13
2022-11-27T16:01:11.919Z,100894.28
2022-11-27T16:06:13.646Z,100893.75
2022-11-27T16:11:19.449Z,100883.78
2022-11-27T16:16:21.367Z,100883.16
2022-11-27T16:21:29.138Z,100881.81
2022-11-27T16:26:31.786Z,100867.03
2022-11-27T16:31:33.527Z,100861.47
2022-11-27T16:36:37.637Z,100841.66
2022-11-27T16:41:39.427Z,100851.72
2022-11-27T16:46:43.755Z,100850.44
2022-11-27T16:51:45.768Z,100842.41
2022-11-27T16:56:48.553Z,100839.97
2022-11-27T17:01:51.552Z,100825.06
2022-11-27T17:06:53.269Z,100828.06
2022-11-27T17:11:55.252Z,100832.56
2022-11-27T17:17:00.320Z,100835.38
2022-11-27T17:22:04.387Z,100832.78
2022-11-27T17:27:09.095Z,100847.88
2022-11-27T17:32:12.946Z,100849.88
2022-11-27T17:37:15.206Z,100853.31
2022-11-27T17:42:22.420Z,100844.41
2022-11-27T17:47:24.634Z,100841.00
2022-11-27T17:52:26.211Z,100852.44
2022-11-27T17:57:27.867Z,100858.16
2022-11-27T18:02:30.230Z,100847.03
2022-11-27T18:07:32.639Z,100841.03
2022-11-27T18:12:34.312Z,100831.56
2022-11-27T18:17:36.915Z,100836.78
2022-11-27T18:22:38.603Z,100840.22
2022-11-27T18:27:41.128Z,100846.81
2022-11-27T18:32:42.814Z,100835.81
2022-11-27T18:37:44.459Z,100836.53
2022-11-27T18:42:46.040Z,100826.25
2022-11-27T18:47:47.688Z,100834.69
2022-11-27T18:52:50.452Z,100827.97
2022-11-27T18:57:53.187Z,100835.00
2022-11-27T19:02:54.860Z,100836.84
2022-11-27T19:07:56.578Z,100841.66
2022-11-27T19:12:58.233Z,100859.88
2022-11-27T19:17:59.863Z,100851.94
2022-11-27T19:23:02.323Z,100853.66
2022-11-27T19:28:06.015Z,100846.56
2022-11-27T19:33:08.309Z,100842.63
2022-11-27T19:38:09.897Z,100852.28
2022-11-27T19:43:11.748Z,100844.69
2022-11-27T19:48:13.523Z,100821.41
2022-11-27T19:53:15.500Z,100826.63
2022-11-27T19:58:17.391Z,100818.22
2022-11-27T20:03:19.260Z,100816.78
2022-11-27T20:08:21.014Z,100815.97
2022-11-27T20:13:23.205Z,100805.53
2022-11-27T20:18:27.880Z,100801.31
2022-11-27T20:23:29.731Z,100791.94
2022-11-27T20:28:31.588Z,100801.03
2022-11-27T20:33:33.913Z,100786.06
2022-11-27T20:38:35.550Z,100781.09
2022-11-27T20:43:37.836Z,100787.00
2022-11-27T20:48:39.786Z,100787.00
2022-11-27T20:53:43.717Z,100780.22
2022-11-27T20:58:46.946Z,100780.16
2022-11-27T21:03:50.508Z,100774.09
2022-11-27T21:08:53.676Z,100759.72
2022-11-27T21:14:01.044Z,100759.66
2022-11-27T21:19:06.448Z,100748.88
2022-11-27T21:24:08.416Z,100745.75
2022-11-27T21:29:12.454Z,100737.53
2022-11-27T21:34:15.357Z,100731.28
2022-11-27T21:39:20.539Z,100728.50
2022-11-27T21:44:24.059Z,100724.59
2022-11-27T21:49:25.645Z,100718.88
2022-11-27T21:54:29.406Z,100711.56
2022-11-27T21:59:31.485Z,100698.13
2022-11-27T22:04:33.366Z,100689.84
2022-11-27T22:09:35.037Z,100690.88
2022-11-27T22:14:36.628Z,100688.56
2022-11-27T22:19:42.311Z,100687.16
2022-11-27T22:24:44.238Z,100685.59
2022-11-27T22:29:46.020Z,100673.38
2022-11-27T22:34:48.704Z,100681.00
2022-11-27T22:39:50.335Z,100668.53
2022-11-27T22:44:52.121Z,100658.69
2022-11-27T22:49:53.815Z,100651.69
2022-11-27T22:54:55.895Z,100650.66
2022-11-27T22:59:57.931Z,100652.44
2022-11-27T23:04:59.512Z,100658.63
2022-11-27T23:10:01.205Z,100657.84
2022-11-27T23:15:03.155Z,100646.16
2022-11-27T23:20:05.574Z,100645.38
2022-11-27T23:25:07.758Z,100649.88
2022-11-27T23:30:09.829Z,100653.97
2022-11-27T23:35:11.700Z,100653.44
2022-11-27T23:40:13.711Z,100656.84
2022-11-27T23:45:15.386Z,100650.03
2022-11-27T23:50:17.526Z,100639.84
2022-11-27T23:55:19.228Z,100632.19
